createdAt,value
2018-11-04T00:01:42.277Z,0.80
2018-11-04T00:04:10.823Z,0.80
2018-11-04T00:06:39.250Z,0.77
2018-11-04T00:09:09.204Z,0.85
2018-11-04T00:11:37.676Z,0.85
2018-11-04T00:14:06.260Z,0.86
2018-11-04T00:16:34.730Z,0.86
2018-11-04T00:19:03.162Z,0.83
2018-11-04T00:21:31.621Z,0.75
2018-11-04T00:24:00.149Z,0.76
2018-11-04T00:26:28.582Z,0.76
2018-11-04T00:28:57.037Z,0.72
2018-11-04T00:31:25.537Z,0.69
2018-11-04T00:33:53.973Z,0.73
2018-11-04T00:36:23.403Z,0.78
2018-11-04T00:38:51.808Z,0.81
2018-11-04T00:41:20.193Z,0.86
2018-11-04T00:43:48.662Z,0.89
2018-11-04T00:46:17.123Z,0.85
2018-11-04T00:48:45.583Z,0.81
2018-11-04T00:51:13.997Z,0.79
2018-11-04T00:53:42.473Z,0.79
2018-11-04T00:56:10.893Z,0.83
2018-11-04T00:58:39.328Z,0.83
2018-11-04T01:01:07.802Z,0.88
2018-11-04T01:03:36.314Z,0.96
2018-11-04T01:06:04.748Z,0.98
2018-11-04T01:08:33.154Z,1.04
2018-11-04T01:11:01.641Z,1.05
2018-11-04T01:13:30.071Z,1.07
2018-11-04T01:15:58.525Z,1.10
2018-11-04T01:18:26.936Z,1.07
2018-11-04T01:20:55.365Z,1.02
2018-11-04T01:23:23.777Z,1.00
2018-11-04T01:25:52.205Z,1.01
2018-11-04T01:28:20.742Z,1.04
2018-11-04T01:30:49.209Z,1.05
2018-11-04T01:33:17.634Z,1.05
2018-11-04T01:35:46.094Z,1.09
2018-11-04T01:38:14.550Z,1.17
2018-11-04T01:40:43.018Z,1.20
2018-11-04T01:43:11.506Z,1.27
2018-11-04T01:45:39.970Z,1.32
2018-11-04T01:48:08.437Z,1.39
2018-11-04T01:50:36.921Z,1.53
2018-11-04T01:53:05.581Z,1.56
2018-11-04T01:55:34.030Z,1.66
2018-11-04T01:58:02.457Z,1.77
2018-11-04T02:00:30.910Z,1.84
2018-11-04T02:02:59.377Z,1.93
2018-11-04T02:05:27.852Z,2.04
2018-11-04T02:07:56.261Z,2.10
2018-11-04T02:10:24.710Z,2.23
2018-11-04T02:12:53.142Z,2.27
2018-11-04T02:15:21.606Z,2.32
2018-11-04T02:17:50.022Z,2.39
2018-11-04T02:20:18.459Z,2.49
2018-11-04T02:22:46.877Z,2.57
2018-11-04T02:25:15.337Z,2.68
2018-11-04T02:27:44.158Z,2.71
2018-11-04T02:30:14.683Z,2.79
2018-11-04T02:32:44.003Z,2.89
2018-11-04T02:35:13.063Z,2.92
2018-11-04T02:37:41.690Z,2.94
2018-11-04T02:40:10.666Z,2.93
2018-11-04T02:42:39.059Z,2.99
2018-11-04T02:45:07.825Z,3.08
2018-11-04T02:47:36.561Z,3.19
2018-11-04T02:50:05.378Z,3.25
2018-11-04T02:52:33.852Z,3.32
2018-11-04T02:55:02.306Z,3.34
2018-11-04T02:57:30.746Z,3.40
2018-11-04T02:59:59.437Z,3.45
2018-11-04T03:02:27.855Z,3.46
2018-11-04T03:04:56.309Z,3.47
2018-11-04T03:07:24.763Z,3.52
2018-11-04T03:09:53.201Z,3.60
2018-11-04T03:12:21.631Z,3.66
2018-11-04T03:14:50.068Z,3.70
2018-11-04T03:17:18.482Z,3.76
2018-11-04T03:19:46.942Z,3.80
2018-11-04T03:22:16.401Z,3.86
2018-11-04T03:24:44.850Z,3.88
2018-11-04T03:27:13.261Z,3.90
2018-11-04T03:29:41.685Z,3.93
2018-11-04T03:32:10.169Z,3.94
2018-11-04T03:34:38.693Z,3.98
2018-11-04T03:37:07.213Z,4.03
2018-11-04T03:39:35.657Z,4.07
2018-11-04T03:42:04.180Z,4.13
2018-11-04T03:44:32.595Z,4.14
2018-11-04T03:47:01.049Z,4.20
2018-11-04T03:49:29.467Z,4.24
2018-11-04T03:51:57.925Z,4.26
2018-11-04T03:54:26.382Z,4.28
2018-11-04T03:56:54.821Z,4.32
2018-11-04T03:59:23.304Z,4.36
2018-11-04T04:01:51.750Z,4.36
2018-11-04T04:04:20.182Z,4.39
2018-11-04T04:06:48.648Z,4.44
2018-11-04T04:09:17.059Z,4.45
2018-11-04T04:11:45.486Z,4.49
2018-11-04T04:14:13.877Z,4.51
2018-11-04T04:16:42.314Z,4.54
2018-11-04T04:19:10.738Z,4.53
2018-11-04T04:21:39.175Z,4.57
2018-11-04T04:24:07.590Z,4.59
2018-11-04T04:26:36.116Z,4.61
2018-11-04T04:29:04.587Z,4.66
2018-11-04T04:31:33.066Z,4.66
2018-11-04T04:34:01.505Z,4.66
2018-11-04T04:36:29.944Z,4.67
2018-11-04T04:38:58.362Z,4.66
2018-11-04T04:41:26.757Z,4.66
2018-11-04T04:43:55.139Z,4.69
2018-11-04T04:46:23.618Z,4.74
2018-11-04T04:48:52.020Z,4.78
2018-11-04T04:51:20.446Z,4.90
2018-11-04T04:53:48.848Z,5.01
2018-11-04T04:56:17.260Z,5.10
2018-11-04T04:58:45.671Z,5.18
2018-11-04T05:01:14.069Z,5.22
2018-11-04T05:03:42.489Z,5.27
2018-11-04T05:06:10.929Z,5.34
2018-11-04T05:08:39.307Z,5.40
2018-11-04T05:11:07.713Z,5.45
2018-11-04T05:13:36.162Z,5.48
2018-11-04T05:16:04.793Z,5.50
2018-11-04T05:18:33.157Z,5.55
2018-11-04T05:21:01.550Z,5.54
2018-11-04T05:23:30.153Z,5.56
2018-11-04T05:25:58.569Z,5.57
2018-11-04T05:28:27.010Z,5.59
2018-11-04T05:30:55.439Z,5.59
2018-11-04T05:33:23.825Z,5.61
2018-11-04T05:35:52.220Z,5.64
2018-11-04T05:38:20.689Z,5.66
2018-11-04T05:40:49.057Z,5.65
2018-11-04T05:43:17.465Z,5.68
2018-11-04T05:45:45.853Z,5.70
2018-11-04T05:48:14.269Z,5.73
2018-11-04T05:50:42.670Z,5.76
2018-11-04T05:53:11.095Z,5.81
2018-11-04T05:55:39.483Z,5.89
2018-11-04T05:58:08.051Z,5.90
2018-11-04T06:00:36.466Z,5.93
2018-11-04T06:03:05.182Z,5.98
2018-11-04T06:05:33.680Z,6.01
2018-11-04T06:08:02.112Z,6.04
2018-11-04T06:10:30.543Z,6.08
2018-11-04T06:12:58.934Z,6.09
2018-11-04T06:15:27.366Z,6.06
2018-11-04T06:17:55.757Z,6.07
2018-11-04T06:20:24.125Z,6.08
2018-11-04T06:22:52.552Z,6.16
2018-11-04T06:25:20.991Z,6.23
2018-11-04T06:27:49.386Z,6.28
2018-11-04T06:30:17.765Z,6.31
2018-11-04T06:32:46.221Z,6.34
2018-11-04T06:35:14.610Z,6.34
2018-11-04T06:37:43.061Z,6.32
2018-11-04T06:40:11.642Z,6.34
2018-11-04T06:42:40.268Z,6.33
2018-11-04T06:45:09.826Z,6.39
2018-11-04T06:47:38.618Z,6.42
2018-11-04T06:50:09.042Z,6.40
2018-11-04T06:52:37.438Z,6.40
2018-11-04T06:55:07.027Z,6.40
2018-11-04T06:57:35.472Z,6.39
2018-11-04T07:00:04.031Z,6.38
2018-11-04T07:02:32.366Z,6.43
2018-11-04T07:05:00.802Z,6.44
2018-11-04T07:07:29.242Z,6.47
2018-11-04T07:09:57.655Z,6.49
2018-11-04T07:12:26.194Z,6.56
2018-11-04T07:14:54.613Z,6.57
2018-11-04T07:17:23.033Z,6.61
2018-11-04T07:19:51.456Z,6.65
2018-11-04T07:22:19.894Z,6.71
2018-11-04T07:24:48.305Z,6.78
2018-11-04T07:27:16.786Z,6.83
2018-11-04T07:29:45.233Z,6.89
2018-11-04T07:32:13.810Z,6.96
2018-11-04T07:34:42.157Z,7.00
2018-11-04T07:37:10.573Z,7.08
2018-11-04T07:39:38.961Z,7.17
2018-11-04T07:42:07.762Z,7.25
2018-11-04T07:44:36.145Z,7.35
2018-11-04T07:47:04.609Z,7.42
2018-11-04T07:49:33.014Z,7.48
2018-11-04T07:52:01.414Z,7.55
2018-11-04T07:54:29.837Z,7.60
2018-11-04T07:56:58.305Z,7.65
2018-11-04T07:59:26.691Z,7.65
2018-11-04T08:01:55.116Z,7.69
2018-11-04T08:04:23.612Z,7.75
2018-11-04T08:06:52.030Z,7.83
2018-11-04T08:09:20.457Z,7.88
2018-11-04T08:11:49.837Z,7.93
2018-11-04T08:14:18.278Z,8.04
2018-11-04T08:16:46.694Z,8.09
2018-11-04T08:19:15.119Z,8.17
2018-11-04T08:21:43.717Z,8.21
2018-11-04T08:24:12.110Z,8.33
2018-11-04T08:26:40.510Z,8.39
2018-11-04T08:29:09.489Z,8.52
2018-11-04T08:31:38.024Z,8.39
2018-11-04T08:34:06.435Z,8.46
2018-11-04T08:36:34.825Z,8.55
2018-11-04T08:39:03.507Z,8.56
2018-11-04T08:41:31.925Z,8.62
2018-11-04T08:44:00.330Z,8.69
2018-11-04T08:46:28.731Z,8.78
2018-11-04T08:48:57.173Z,8.83
2018-11-04T08:51:25.766Z,8.93
2018-11-04T08:53:54.170Z,9.04
2018-11-04T08:56:22.579Z,9.06
2018-11-04T08:58:50.994Z,9.11
2018-11-04T09:01:19.389Z,9.22
2018-11-04T09:03:47.853Z,9.36
2018-11-04T09:06:16.254Z,9.46
2018-11-04T09:08:44.715Z,9.54
2018-11-04T09:11:13.073Z,9.59
2018-11-04T09:13:41.462Z,9.69
2018-11-04T09:16:09.882Z,9.78
2018-11-04T09:18:38.275Z,9.80
2018-11-04T09:21:06.669Z,9.84
2018-11-04T09:23:35.975Z,9.93
2018-11-04T09:26:04.390Z,10.00
2018-11-04T09:28:32.788Z,10.11
2018-11-04T09:31:01.226Z,9.97
2018-11-04T09:33:29.957Z,10.02
2018-11-04T09:35:58.434Z,10.07
2018-11-04T09:38:26.790Z,10.07
2018-11-04T09:40:55.201Z,10.13
2018-11-04T09:43:23.606Z,10.18
2018-11-04T09:45:52.009Z,10.25
2018-11-04T09:50:56.019Z,10.36
2018-11-04T09:53:24.419Z,10.43
2018-11-04T09:55:52.807Z,10.41
2018-11-04T09:58:21.205Z,10.41
2018-11-04T10:00:49.606Z,10.38
2018-11-04T10:03:18.087Z,10.43
2018-11-04T10:05:46.472Z,10.45
2018-11-04T10:08:14.910Z,10.42
2018-11-04T10:10:43.272Z,10.54
2018-11-04T10:13:11.741Z,10.57
2018-11-04T10:15:40.092Z,10.60
2018-11-04T10:18:08.513Z,10.55
2018-11-04T10:20:37.364Z,10.69
2018-11-04T10:23:05.602Z,10.77
2018-11-04T10:25:34.050Z,10.87
2018-11-04T10:28:02.467Z,10.90
2018-11-04T10:30:30.944Z,11.03
2018-11-04T10:32:59.351Z,11.02
2018-11-04T10:35:27.779Z,11.04
2018-11-04T10:37:56.174Z,11.07
2018-11-04T10:40:24.610Z,11.19
2018-11-04T10:42:52.987Z,11.01
2018-11-04T10:45:21.412Z,11.12
2018-11-04T10:47:49.841Z,11.27
2018-11-04T10:50:18.557Z,11.37
2018-11-04T10:52:47.225Z,11.44
2018-11-04T10:55:15.645Z,11.62
2018-11-04T10:57:44.037Z,11.71
2018-11-04T11:00:17.705Z,11.80
2018-11-04T11:02:46.279Z,11.97
2018-11-04T11:05:14.979Z,12.06
2018-11-04T11:07:43.488Z,12.12
2018-11-04T11:10:11.946Z,12.21
2018-11-04T11:12:40.488Z,12.32
2018-11-04T11:15:09.990Z,12.35
2018-11-04T11:17:38.397Z,12.34
2018-11-04T11:20:08.226Z,12.28
2018-11-04T11:22:36.862Z,12.46
2018-11-04T11:25:05.743Z,12.48
2018-11-04T11:27:34.146Z,12.55
2018-11-04T11:30:02.609Z,12.46
2018-11-04T11:32:31.061Z,12.38
2018-11-04T11:34:59.495Z,12.37
2018-11-04T11:37:27.950Z,12.44
2018-11-04T11:39:56.351Z,12.63
2018-11-04T11:42:24.794Z,12.60
2018-11-04T11:44:53.225Z,12.75
2018-11-04T11:47:21.697Z,12.68
2018-11-04T11:49:50.093Z,12.73
2018-11-04T11:52:18.546Z,12.79
2018-11-04T11:54:47.017Z,12.76
2018-11-04T11:57:15.456Z,12.71
2018-11-04T11:59:43.879Z,12.71
2018-11-04T12:02:12.320Z,12.64
2018-11-04T12:04:41.137Z,12.72
2018-11-04T12:07:09.632Z,12.70
2018-11-04T12:09:38.065Z,12.80
2018-11-04T12:12:06.489Z,12.80
2018-11-04T12:14:35.809Z,12.87
2018-11-04T12:17:04.221Z,12.79
2018-11-04T12:19:32.645Z,12.85
2018-11-04T12:22:01.062Z,12.74
2018-11-04T12:24:29.504Z,12.80
2018-11-04T12:26:57.910Z,13.06
2018-11-04T12:29:26.713Z,13.19
2018-11-04T12:31:55.133Z,13.42
2018-11-04T12:34:23.591Z,13.46
2018-11-04T12:36:52.326Z,13.42
2018-11-04T12:39:20.758Z,13.45
2018-11-04T12:41:49.190Z,13.54
2018-11-04T12:44:17.652Z,13.52
2018-11-04T12:46:46.109Z,13.45
2018-11-04T12:49:14.531Z,13.42
2018-11-04T12:51:42.945Z,13.39
2018-11-04T12:54:11.374Z,13.29
2018-11-04T12:56:39.846Z,13.20
2018-11-04T12:59:08.346Z,13.19
2018-11-04T13:01:36.802Z,13.25
2018-11-04T13:04:05.302Z,13.42
2018-11-04T13:06:33.768Z,13.43
2018-11-04T13:09:02.252Z,13.42
2018-11-04T13:11:30.778Z,13.55
2018-11-04T13:13:59.225Z,13.58
2018-11-04T13:16:27.655Z,13.69
2018-11-04T13:18:56.586Z,13.91
2018-11-04T13:21:25.564Z,13.87
2018-11-04T13:23:54.332Z,13.63
2018-11-04T13:26:23.344Z,13.53
2018-11-04T13:28:52.107Z,13.40
2018-11-04T13:31:21.402Z,13.46
2018-11-04T13:33:50.160Z,13.74
2018-11-04T13:36:18.883Z,13.84
2018-11-04T13:38:48.521Z,13.85
2018-11-04T13:41:21.653Z,14.48
2018-11-04T13:46:48.622Z,16.73
2018-11-04T13:49:17.325Z,17.14
2018-11-04T13:51:46.849Z,17.72
2018-11-04T13:54:15.469Z,17.96
2018-11-04T13:56:44.581Z,18.23
2018-11-04T13:59:13.012Z,18.56
2018-11-04T14:01:41.475Z,18.49
2018-11-04T14:04:09.946Z,18.68
2018-11-04T14:06:38.382Z,18.48
2018-11-04T14:09:08.025Z,18.50
2018-11-04T14:11:36.453Z,18.48
2018-11-04T14:14:04.986Z,18.69
2018-11-04T14:16:33.560Z,18.76
2018-11-04T14:19:02.023Z,18.63
2018-11-04T14:21:30.457Z,18.71
2018-11-04T14:23:59.134Z,18.62
2018-11-04T14:26:27.613Z,18.47
2018-11-04T14:28:56.098Z,18.00
2018-11-04T14:31:24.615Z,17.61
2018-11-04T14:33:53.077Z,17.06
2018-11-04T14:36:21.506Z,16.57
2018-11-04T14:38:50.103Z,15.51
2018-11-04T14:41:18.670Z,15.13
2018-11-04T14:43:47.487Z,14.72
2018-11-04T14:46:16.113Z,14.37
2018-11-04T14:48:44.581Z,13.99
2018-11-04T14:51:13.018Z,13.40
2018-11-04T14:53:41.492Z,13.27
2018-11-04T14:56:09.942Z,13.04
2018-11-04T14:58:38.341Z,12.87
2018-11-04T15:01:06.873Z,12.68
2018-11-04T15:03:37.159Z,12.51
2018-11-04T15:06:05.733Z,12.31
2018-11-04T15:08:35.303Z,12.15
2018-11-04T15:11:03.826Z,12.06
2018-11-04T15:13:32.243Z,11.89
2018-11-04T15:16:00.703Z,11.79
2018-11-04T15:18:29.213Z,11.63
2018-11-04T15:20:57.612Z,11.50
2018-11-04T15:23:26.031Z,11.41
2018-11-04T15:25:54.686Z,11.29
2018-11-04T15:28:23.228Z,11.20
2018-11-04T15:30:52.050Z,11.10
2018-11-04T15:33:20.596Z,10.98
2018-11-04T15:35:49.118Z,10.91
2018-11-04T15:38:17.697Z,10.84
2018-11-04T15:40:46.254Z,10.75
2018-11-04T15:43:14.941Z,10.64
2018-11-04T15:45:44.005Z,10.51
2018-11-04T15:48:12.966Z,10.42
2018-11-04T15:59:07.330Z,9.91
2018-11-04T16:01:36.095Z,9.81
2018-11-04T16:04:05.042Z,9.74
2018-11-04T16:06:34.014Z,9.62
2018-11-04T16:09:02.856Z,9.55
2018-11-04T16:11:31.719Z,9.50
2018-11-04T16:14:00.862Z,9.48
2018-11-04T16:16:29.744Z,9.40
2018-11-04T16:18:59.384Z,9.36
2018-11-04T16:21:27.991Z,9.30
2018-11-04T16:23:57.413Z,9.21
2018-11-04T16:26:26.159Z,9.16
2018-11-04T16:28:55.111Z,9.09
2018-11-04T16:31:23.838Z,9.00
2018-11-04T16:33:52.726Z,9.01
2018-11-04T16:36:21.522Z,9.00
2018-11-04T16:38:50.443Z,8.98
2018-11-04T16:41:19.254Z,9.07
2018-11-04T16:43:49.941Z,9.15
2018-11-04T16:46:18.770Z,9.10
2018-11-04T16:48:47.609Z,9.05
2018-11-04T16:51:18.683Z,9.01
2018-11-04T16:56:56.055Z,8.99
2018-11-04T16:59:25.839Z,9.01
2018-11-04T17:01:54.707Z,9.04
2018-11-04T17:04:23.628Z,9.01
2018-11-04T17:06:53.148Z,8.94
2018-11-04T17:09:21.952Z,8.92
2018-11-04T17:11:50.640Z,8.90
2018-11-04T17:14:19.329Z,8.89
2018-11-04T17:16:48.131Z,8.89
2018-11-04T17:19:17.024Z,8.94
2018-11-04T17:21:45.817Z,8.89
2018-11-04T17:24:16.398Z,8.88
2018-11-04T17:26:44.977Z,8.84
2018-11-04T17:29:13.753Z,8.80
2018-11-04T17:31:42.536Z,8.78
2018-11-04T17:34:11.201Z,8.83
2018-11-04T17:36:40.261Z,8.80
2018-11-04T17:39:10.713Z,8.78
2018-11-04T17:41:40.131Z,8.71
2018-11-04T17:44:09.758Z,8.66
2018-11-04T17:46:38.609Z,8.61
2018-11-04T17:49:07.678Z,8.56
2018-11-04T17:51:36.533Z,8.50
2018-11-04T17:54:05.661Z,8.47
2018-11-04T17:56:34.304Z,8.53
2018-11-04T18:10:28.067Z,8.47
2018-11-04T18:12:56.757Z,8.45
2018-11-04T18:18:25.430Z,8.48
2018-11-04T18:20:59.717Z,8.55
2018-11-04T18:23:38.962Z,8.59
2018-11-04T18:29:06.278Z,8.56
2018-11-04T18:31:34.864Z,8.55
2018-11-04T18:34:03.353Z,8.52
2018-11-04T18:36:31.786Z,8.50
2018-11-04T18:39:00.513Z,8.49
2018-11-04T18:41:28.971Z,8.46
2018-11-04T19:01:51.944Z,8.03
2018-11-04T19:04:20.482Z,8.01
2018-11-04T19:06:48.906Z,8.02
2018-11-04T19:09:17.390Z,8.01
2018-11-04T19:11:47.699Z,8.10
2018-11-04T19:14:17.337Z,8.13
2018-11-04T19:16:46.166Z,8.21
2018-11-04T19:19:14.588Z,8.28
2018-11-04T19:21:43.016Z,8.31
2018-11-04T19:24:11.790Z,8.33
2018-11-04T19:26:40.234Z,8.35
2018-11-04T19:29:08.727Z,8.33
2018-11-04T19:31:37.953Z,8.25
2018-11-04T19:34:06.914Z,8.18
2018-11-04T19:36:35.693Z,8.07
2018-11-04T19:39:06.927Z,7.97
2018-11-04T19:41:35.926Z,7.94
2018-11-04T19:44:04.685Z,7.89
2018-11-04T19:46:33.486Z,7.89
2018-11-04T20:55:22.036Z,8.34
2018-11-04T20:57:57.685Z,8.48
2018-11-04T21:00:26.441Z,8.53
2018-11-04T21:02:55.378Z,8.56
2018-11-04T21:05:24.141Z,8.59
2018-11-04T21:07:53.064Z,8.56
2018-11-04T21:10:22.216Z,8.51
2018-11-04T21:12:50.957Z,8.45
2018-11-04T21:15:19.670Z,8.42
2018-11-04T21:17:48.504Z,8.29
2018-11-04T21:20:17.349Z,8.23
2018-11-04T21:22:46.030Z,8.16
2018-11-04T21:25:14.680Z,8.06
2018-11-04T21:27:43.339Z,7.96
2018-11-04T21:30:35.157Z,7.87
2018-11-04T21:36:16.546Z,7.62
2018-11-04T21:38:45.123Z,7.51
2018-11-04T21:41:13.768Z,7.40
2018-11-04T21:43:42.328Z,7.34
2018-11-04T21:46:10.816Z,7.26
2018-11-04T21:48:39.217Z,7.26
2018-11-04T21:51:07.881Z,7.30
2018-11-04T21:53:36.425Z,7.21
2018-11-04T21:56:05.531Z,7.14
2018-11-04T21:58:34.111Z,7.08
2018-11-04T22:01:02.736Z,6.99
2018-11-04T22:03:37.617Z,6.94
2018-11-04T22:06:06.902Z,6.89
2018-11-04T22:08:35.538Z,6.87
2018-11-04T22:11:05.821Z,6.89
2018-11-04T22:13:34.211Z,6.93
2018-11-04T22:16:02.729Z,6.98
2018-11-04T22:18:31.170Z,6.96
2018-11-04T22:20:59.578Z,6.96
2018-11-04T22:23:27.989Z,7.01
2018-11-04T22:25:56.369Z,7.20
2018-11-04T22:28:24.766Z,7.24
2018-11-04T22:30:53.262Z,7.20
2018-11-04T22:33:21.721Z,7.24
2018-11-04T22:35:50.114Z,7.27
2018-11-04T22:38:18.530Z,7.31
2018-11-04T22:40:46.966Z,7.31
2018-11-04T22:43:15.353Z,7.37
2018-11-04T22:45:43.778Z,7.38
2018-11-04T22:48:12.169Z,7.35
2018-11-04T22:50:40.629Z,7.35
2018-11-04T22:53:08.998Z,7.36
2018-11-04T22:55:37.472Z,7.41
2018-11-04T22:58:07.113Z,7.40
2018-11-04T23:00:42.974Z,7.39
2018-11-04T23:03:11.748Z,7.38
2018-11-04T23:05:40.177Z,7.37
2018-11-04T23:08:09.153Z,7.37
2018-11-04T23:10:37.550Z,7.40
2018-11-04T23:13:06.137Z,7.41
2018-11-04T23:15:34.537Z,7.32
2018-11-04T23:18:03.072Z,7.25
2018-11-04T23:20:31.460Z,7.17
2018-11-04T23:22:59.850Z,7.04
2018-11-04T23:25:28.270Z,6.95
2018-11-04T23:27:56.648Z,6.86
2018-11-04T23:30:25.098Z,6.88
2018-11-04T23:32:53.515Z,6.87
2018-11-04T23:35:21.929Z,6.98
2018-11-04T23:37:50.297Z,7.18
2018-11-04T23:40:18.693Z,7.41
2018-11-04T23:42:47.078Z,7.49
2018-11-04T23:45:15.934Z,7.70
2018-11-04T23:47:44.454Z,7.94
2018-11-04T23:50:14.308Z,8.07
2018-11-04T23:52:43.142Z,8.18
2018-11-04T23:55:12.485Z,8.30
2018-11-04T23:57:40.857Z,8.38
